Time;durP1;ratioP1;P1;durP2;ratioP2;P2;SDS_P1;SDS_P2;PMS_P1;PMS_P2;Temp;Humidity;BMP_temperature;BMP_pressure;BME280_temperature;BME280_humidity;BME280_pressure;Samples;Min_cycle;Max_cycle;Signal;HPM_P1;HPM_P2
2024/01/26 00:01:38;;;;;;;12.30;9.30;;;;;;;;;;5030690;28;20175;-54
2024/01/26 00:04:04;;;;;;;10.70;8.53;;;;;;;;;;5012018;28;20188;-54
2024/01/26 00:06:30;;;;;;;10.90;8.30;;;;;;;;;;5022603;28;20185;-54
2024/01/26 00:08:56;;;;;;;10.80;9.07;;;;;;;;;;5030145;28;20232;-61
2024/01/26 00:11:23;;;;;;;13.23;9.63;;;;;;;;;;5030528;28;20241;-56
2024/01/26 00:13:49;;;;;;;12.87;8.77;;;;;;;;;;5029861;28;20537;-60
2024/01/26 00:16:15;;;;;;;10.80;8.43;;;;;;;;;;5015001;28;20500;-60
2024/01/26 00:18:41;;;;;;;11.93;9.30;;;;;;;;;;5010480;28;20251;-60
2024/01/26 00:21:07;;;;;;;9.67;8.67;;;;;;;;;;5029413;28;20185;-59
2024/01/26 00:23:35;;;;;;;10.67;8.23;;;;;;;;;;5025089;28;20270;-61
2024/01/26 00:26:01;;;;;;;10.47;8.53;;;;;;;;;;5021467;28;20195;-55
2024/01/26 00:28:27;;;;;;;12.17;8.13;;;;;;;;;;5019011;28;20194;-61
2024/01/26 00:30:53;;;;;;;12.50;8.90;;;;;;;;;;5029698;28;20214;-59
2024/01/26 00:33:19;;;;;;;13.03;8.63;;;;;;;;;;5020052;28;20174;-60
2024/01/26 00:35:45;;;;;;;12.20;8.07;;;;;;;;;;5019410;28;20626;-55
2024/01/26 00:38:11;;;;;;;10.47;7.63;;;;;;;;;;5021037;28;20174;-59
2024/01/26 00:40:37;;;;;;;9.20;7.77;;;;;;;;;;5022336;28;20186;-61
2024/01/26 00:43:03;;;;;;;11.43;8.83;;;;;;;;;;5011613;28;20216;-58
2024/01/26 00:45:29;;;;;;;10.20;8.90;;;;;;;;;;5025125;28;20287;-60
2024/01/26 00:47:55;;;;;;;11.07;9.10;;;;;;;;;;5009281;28;20542;-61
2024/01/26 00:50:21;;;;;;;10.13;7.83;;;;;;;;;;5016836;28;20292;-59
2024/01/26 00:52:47;;;;;;;11.47;7.87;;;;;;;;;;5027017;28;20685;-61
2024/01/26 00:55:13;;;;;;;9.67;7.87;;;;;;;;;;5007882;28;20652;-61
2024/01/26 00:57:39;;;;;;;11.77;8.27;;;;;;;;;;5024739;28;20583;-61
2024/01/26 01:00:07;;;;;;;9.17;8.27;;;;;;;;;;5028482;28;20186;-60
2024/01/26 01:02:33;;;;;;;11.47;8.10;;;;;;;;;;5024915;28;20193;-58
2024/01/26 01:04:59;;;;;;;9.20;8.17;;;;;;;;;;5020466;28;20269;-60
2024/01/26 01:07:25;;;;;;;9.27;8.27;;;;;;;;;;5020084;28;20181;-58
2024/01/26 01:09:51;;;;;;;9.90;7.97;;;;;;;;;;5010481;28;20660;-60
2024/01/26 01:12:18;;;;;;;11.37;7.63;;;;;;;;;;5028556;28;20201;-61
2024/01/26 01:14:44;;;;;;;9.43;7.83;;;;;;;;;;5028458;28;20164;-59
2024/01/26 01:17:11;;;;;;;9.93;8.20;;;;;;;;;;5027801;28;20283;-61
2024/01/26 01:19:37;;;;;;;9.83;7.53;;;;;;;;;;5028108;28;20237;-54
2024/01/26 01:22:03;;;;;;;9.03;7.93;;;;;;;;;;5010132;28;20282;-54
2024/01/26 01:24:29;;;;;;;10.40;8.03;;;;;;;;;;5025563;28;20189;-54
2024/01/26 01:26:55;;;;;;;9.10;7.67;;;;;;;;;;5027630;28;20280;-54
2024/01/26 01:29:21;;;;;;;9.80;7.57;;;;;;;;;;5008319;28;20174;-55
2024/01/26 01:31:47;;;;;;;9.20;8.30;;;;;;;;;;5008454;28;20308;-54
2024/01/26 01:34:13;;;;;;;9.20;8.13;;;;;;;;;;5014882;28;20253;-54
2024/01/26 01:36:40;;;;;;;9.83;8.20;;;;;;;;;;5009969;28;20641;-54
2024/01/26 01:39:07;;;;;;;9.63;8.20;;;;;;;;;;5010794;28;20656;-54
2024/01/26 01:41:33;;;;;;;8.77;7.80;;;;;;;;;;5005846;28;20251;-54
2024/01/26 01:43:59;;;;;;;11.53;8.47;;;;;;;;;;5011542;28;20186;-54
2024/01/26 01:46:26;;;;;;;9.93;7.70;;;;;;;;;;4980968;28;1044762;-54
2024/01/26 01:48:53;;;;;;;10.00;7.57;;;;;;;;;;5028153;28;20170;-54
2024/01/26 01:51:19;;;;;;;9.93;7.73;;;;;;;;;;5025685;28;20240;-54
2024/01/26 01:53:47;;;;;;;9.87;8.40;;;;;;;;;;5024071;28;20185;-54
2024/01/26 01:56:14;;;;;;;8.97;7.83;;;;;;;;;;5015181;28;20202;-54
2024/01/26 01:58:43;;;;;;;9.87;8.37;;;;;;;;;;5026611;28;20213;-54
2024/01/26 02:01:09;;;;;;;9.73;8.30;;;;;;;;;;5011925;28;20209;-54
2024/01/26 02:03:36;;;;;;;9.77;8.17;;;;;;;;;;5027822;28;20185;-55
2024/01/26 02:06:03;;;;;;;8.33;7.43;;;;;;;;;;5028005;28;20217;-54
2024/01/26 02:08:29;;;;;;;10.90;8.50;;;;;;;;;;5027835;28;20585;-54
2024/01/26 02:10:55;;;;;;;9.50;8.43;;;;;;;;;;5026745;28;20739;-54
2024/01/26 02:13:21;;;;;;;9.83;8.53;;;;;;;;;;5008906;28;20171;-55
2024/01/26 02:15:47;;;;;;;11.73;8.37;;;;;;;;;;5027121;28;20585;-54
2024/01/26 02:18:13;;;;;;;9.30;8.30;;;;;;;;;;5024563;28;20588;-54
2024/01/26 02:20:39;;;;;;;9.53;8.23;;;;;;;;;;5009074;28;20218;-54
2024/01/26 02:23:05;;;;;;;9.20;8.30;;;;;;;;;;5009174;28;20163;-54
2024/01/26 02:25:31;;;;;;;8.97;7.10;;;;;;;;;;5011504;28;20182;-55
2024/01/26 02:27:57;;;;;;;11.57;8.03;;;;;;;;;;5028587;28;20714;-54
2024/01/26 02:30:23;;;;;;;9.63;8.00;;;;;;;;;;5027179;28;20273;-54
2024/01/26 02:32:49;;;;;;;9.30;8.10;;;;;;;;;;5014947;28;20178;-55
2024/01/26 02:35:15;;;;;;;10.07;8.50;;;;;;;;;;5009678;28;20633;-53
2024/01/26 02:37:41;;;;;;;11.00;8.53;;;;;;;;;;5007485;28;20196;-51
2024/01/26 02:40:08;;;;;;;9.97;8.93;;;;;;;;;;5010522;28;20297;-53
2024/01/26 02:42:34;;;;;;;8.67;7.77;;;;;;;;;;5015794;28;20526;-51
2024/01/26 02:45:00;;;;;;;8.93;7.87;;;;;;;;;;5009681;28;20241;-51
2024/01/26 02:47:26;;;;;;;10.37;8.80;;;;;;;;;;5024425;28;20287;-51
2024/01/26 02:49:52;;;;;;;9.07;8.00;;;;;;;;;;5008476;28;20170;-51
2024/01/26 02:52:20;;;;;;;8.87;7.97;;;;;;;;;;5021662;28;20229;-50
2024/01/26 02:54:46;;;;;;;9.77;8.77;;;;;;;;;;5008244;28;20712;-53
2024/01/26 02:57:12;;;;;;;9.47;8.47;;;;;;;;;;5016177;28;20201;-55
2024/01/26 02:59:40;;;;;;;11.03;8.27;;;;;;;;;;5007477;28;20221;-50
2024/01/26 03:02:06;;;;;;;9.33;7.67;;;;;;;;;;5021045;28;20273;-51
2024/01/26 03:04:32;;;;;;;8.77;7.90;;;;;;;;;;5019165;28;20588;-50
2024/01/26 03:06:58;;;;;;;9.23;7.60;;;;;;;;;;5028285;28;20166;-50
2024/01/26 03:09:24;;;;;;;7.30;6.60;;;;;;;;;;5024611;28;20252;-52
2024/01/26 03:11:50;;;;;;;8.10;7.10;;;;;;;;;;5028559;28;20225;-49
2024/01/26 03:14:18;;;;;;;8.30;7.13;;;;;;;;;;5028167;28;20525;-51
2024/01/26 03:16:44;;;;;;;7.63;6.83;;;;;;;;;;5028171;28;20570;-50
2024/01/26 03:19:11;;;;;;;7.43;6.47;;;;;;;;;;5029867;28;20655;-52
2024/01/26 03:21:43;;;;;;;10.17;7.60;;;;;;;;;;5014523;28;20218;-52
2024/01/26 03:24:10;;;;;;;7.37;6.67;;;;;;;;;;5030747;28;20180;-52
2024/01/26 03:26:37;;;;;;;6.80;6.20;;;;;;;;;;5030787;28;20498;-51
2024/01/26 03:29:03;;;;;;;6.70;6.10;;;;;;;;;;5031353;28;20253;-50
2024/01/26 03:31:29;;;;;;;6.60;6.00;;;;;;;;;;5025137;28;20210;-51
2024/01/26 03:33:55;;;;;;;6.40;5.70;;;;;;;;;;5011999;28;20182;-54
2024/01/26 03:36:21;;;;;;;6.87;6.17;;;;;;;;;;5010743;28;20182;-52
2024/01/26 03:38:47;;;;;;;6.73;6.10;;;;;;;;;;5010925;28;20264;-53
2024/01/26 03:41:13;;;;;;;8.43;7.60;;;;;;;;;;5007078;28;20429;-52
2024/01/26 03:43:39;;;;;;;7.50;6.77;;;;;;;;;;5013158;28;20221;-52
2024/01/26 03:46:06;;;;;;;7.30;6.60;;;;;;;;;;5020663;28;20225;-61
2024/01/26 03:48:32;;;;;;;7.53;6.47;;;;;;;;;;5016848;28;20873;-57
2024/01/26 03:50:58;;;;;;;7.20;6.27;;;;;;;;;;5012231;28;20225;-61
2024/01/26 03:53:24;;;;;;;6.10;5.57;;;;;;;;;;5021840;28;20221;-58
2024/01/26 03:55:52;;;;;;;7.53;6.83;;;;;;;;;;5015303;28;20209;-60
2024/01/26 03:58:18;;;;;;;6.90;6.30;;;;;;;;;;5019029;28;20636;-61
2024/01/26 04:00:45;;;;;;;7.10;6.40;;;;;;;;;;5008490;28;20681;-55
2024/01/26 04:03:11;;;;;;;7.17;6.47;;;;;;;;;;5009806;28;20665;-61
2024/01/26 04:05:37;;;;;;;8.67;6.67;;;;;;;;;;5010023;28;20199;-56
2024/01/26 04:08:03;;;;;;;7.63;6.23;;;;;;;;;;5010757;28;20178;-58
2024/01/26 04:10:30;;;;;;;7.80;7.00;;;;;;;;;;5008249;28;20642;-61
2024/01/26 04:12:56;;;;;;;7.23;6.53;;;;;;;;;;5008497;28;20187;-61
2024/01/26 04:15:22;;;;;;;6.53;5.77;;;;;;;;;;5012253;28;20192;-61
2024/01/26 04:17:48;;;;;;;6.43;5.83;;;;;;;;;;4991613;28;20647;-59
2024/01/26 04:20:14;;;;;;;7.23;6.53;;;;;;;;;;5007639;28;20856;-59
2024/01/26 04:22:41;;;;;;;6.70;6.07;;;;;;;;;;5009424;28;20188;-59
2024/01/26 04:25:07;;;;;;;7.23;5.87;;;;;;;;;;4989601;28;20191;-55
2024/01/26 04:27:33;;;;;;;7.40;6.70;;;;;;;;;;5015569;28;20564;-61
2024/01/26 04:29:59;;;;;;;6.60;6.00;;;;;;;;;;5014234;28;20182;-60
2024/01/26 04:32:25;;;;;;;6.37;5.73;;;;;;;;;;5015530;28;20209;-58
2024/01/26 04:34:51;;;;;;;7.70;6.90;;;;;;;;;;5010959;28;20746;-58
2024/01/26 04:37:17;;;;;;;6.87;5.97;;;;;;;;;;5007690;28;20178;-61
2024/01/26 04:39:43;;;;;;;6.40;5.80;;;;;;;;;;5008858;28;20639;-61
2024/01/26 04:42:09;;;;;;;6.60;5.70;;;;;;;;;;5012661;28;20661;-61
2024/01/26 04:44:36;;;;;;;6.27;5.67;;;;;;;;;;5024201;28;20359;-58
2024/01/26 04:47:02;;;;;;;5.97;5.33;;;;;;;;;;5023642;28;20242;-60
2024/01/26 04:49:28;;;;;;;6.93;5.60;;;;;;;;;;5008858;28;20645;-59
2024/01/26 04:51:54;;;;;;;6.60;5.37;;;;;;;;;;5012885;28;20202;-62
2024/01/26 04:54:20;;;;;;;6.50;5.87;;;;;;;;;;5023059;28;20167;-60
2024/01/26 04:56:46;;;;;;;6.97;4.73;;;;;;;;;;5010527;28;20167;-51
2024/01/26 04:59:12;;;;;;;5.53;4.93;;;;;;;;;;5009891;28;20190;-52
2024/01/26 05:01:39;;;;;;;6.93;5.10;;;;;;;;;;5019915;28;20248;-50
2024/01/26 05:04:06;;;;;;;5.37;4.87;;;;;;;;;;5023150;28;20202;-51
2024/01/26 05:06:32;;;;;;;6.67;5.50;;;;;;;;;;5022122;28;20189;-51
2024/01/26 05:08:58;;;;;;;8.13;5.77;;;;;;;;;;5012431;28;20680;-52
2024/01/26 05:11:24;;;;;;;5.60;5.00;;;;;;;;;;5012175;28;20285;-51
2024/01/26 05:13:50;;;;;;;6.13;5.20;;;;;;;;;;5009158;28;20677;-51
2024/01/26 05:16:16;;;;;;;5.60;5.10;;;;;;;;;;5013568;28;20202;-52
2024/01/26 05:18:42;;;;;;;5.67;4.90;;;;;;;;;;5024489;28;20174;-51
2024/01/26 05:21:08;;;;;;;6.03;5.50;;;;;;;;;;5021447;28;20194;-52
2024/01/26 05:23:34;;;;;;;4.37;3.97;;;;;;;;;;5009591;28;20214;-51
2024/01/26 05:26:01;;;;;;;4.70;4.30;;;;;;;;;;5019352;28;20190;-50
2024/01/26 05:28:27;;;;;;;5.17;4.67;;;;;;;;;;5029049;28;20174;-51
2024/01/26 05:30:53;;;;;;;5.20;4.20;;;;;;;;;;5023870;28;20198;-52
2024/01/26 05:33:19;;;;;;;5.93;4.20;;;;;;;;;;5016753;28;20192;-50
2024/01/26 05:35:45;;;;;;;4.60;4.03;;;;;;;;;;5013269;28;20521;-52
2024/01/26 05:38:12;;;;;;;5.67;3.70;;;;;;;;;;5012324;28;20517;-55
2024/01/26 05:40:38;;;;;;;5.10;4.13;;;;;;;;;;5009349;28;20272;-53
2024/01/26 05:43:04;;;;;;;3.90;3.60;;;;;;;;;;5010168;28;20357;-54
2024/01/26 05:45:30;;;;;;;5.70;4.10;;;;;;;;;;5007096;28;20186;-52
2024/01/26 05:47:56;;;;;;;4.93;3.90;;;;;;;;;;5010820;28;20896;-51
2024/01/26 05:50:22;;;;;;;4.47;4.03;;;;;;;;;;5006541;28;20192;-53
2024/01/26 05:52:49;;;;;;;4.40;3.57;;;;;;;;;;5016386;28;20182;-51
2024/01/26 05:55:15;;;;;;;4.97;4.00;;;;;;;;;;5023227;28;20578;-50
2024/01/26 05:57:41;;;;;;;4.60;3.63;;;;;;;;;;5020549;28;20331;-52
2024/01/26 06:00:07;;;;;;;3.67;3.37;;;;;;;;;;5012615;28;20195;-55
2024/01/26 06:02:34;;;;;;;3.90;3.50;;;;;;;;;;5013871;28;20181;-51
2024/01/26 06:05:00;;;;;;;4.03;3.73;;;;;;;;;;5011562;28;20232;-53
2024/01/26 06:07:26;;;;;;;6.10;4.03;;;;;;;;;;5007464;28;20186;-54
2024/01/26 06:09:52;;;;;;;3.77;3.40;;;;;;;;;;5005777;28;21892;-55
2024/01/26 06:12:18;;;;;;;4.30;3.80;;;;;;;;;;5010725;28;20354;-55
2024/01/26 06:14:43;;;;;;;3.80;3.43;;;;;;;;;;5014279;28;20178;-54
2024/01/26 06:17:10;;;;;;;3.90;3.60;;;;;;;;;;5011927;28;20217;-55
2024/01/26 06:19:38;;;;;;;3.97;3.57;;;;;;;;;;5014827;28;20178;-54
2024/01/26 06:22:04;;;;;;;3.93;3.00;;;;;;;;;;5019744;28;20170;-55
2024/01/26 06:24:30;;;;;;;3.77;3.47;;;;;;;;;;5018961;28;20540;-54
2024/01/26 06:26:56;;;;;;;3.77;2.90;;;;;;;;;;5015291;28;20213;-55
2024/01/26 06:29:22;;;;;;;4.23;3.37;;;;;;;;;;5012421;28;20312;-54
2024/01/26 06:31:48;;;;;;;5.53;3.63;;;;;;;;;;5011621;28;20210;-54
2024/01/26 06:34:14;;;;;;;4.03;3.30;;;;;;;;;;5006605;28;20197;-54
2024/01/26 06:36:41;;;;;;;5.07;3.37;;;;;;;;;;5005396;28;20642;-55
2024/01/26 06:39:08;;;;;;;4.67;3.50;;;;;;;;;;5009038;28;20189;-55
2024/01/26 06:41:36;;;;;;;3.50;3.20;;;;;;;;;;5014990;28;20583;-54
2024/01/26 06:44:02;;;;;;;3.13;2.80;;;;;;;;;;5023902;28;20212;-54
2024/01/26 06:46:28;;;;;;;3.97;3.20;;;;;;;;;;5022318;28;20312;-54
2024/01/26 06:48:55;;;;;;;4.33;3.50;;;;;;;;;;5016765;28;20179;-54
2024/01/26 06:51:21;;;;;;;4.00;2.90;;;;;;;;;;5021433;28;20212;-54
2024/01/26 06:53:47;;;;;;;3.57;2.80;;;;;;;;;;5030245;28;20162;-54
2024/01/26 06:56:13;;;;;;;3.13;2.63;;;;;;;;;;5025959;28;20178;-54
2024/01/26 06:58:39;;;;;;;3.60;2.93;;;;;;;;;;5012368;28;20700;-54
2024/01/26 07:01:06;;;;;;;3.07;2.87;;;;;;;;;;5020474;28;20186;-54
2024/01/26 07:03:32;;;;;;;3.30;2.67;;;;;;;;;;5027020;28;20196;-54
2024/01/26 07:05:58;;;;;;;2.70;2.30;;;;;;;;;;5030243;28;20192;-55
2024/01/26 07:08:24;;;;;;;4.07;3.03;;;;;;;;;;5031867;28;20169;-55
2024/01/26 07:10:50;;;;;;;3.00;2.77;;;;;;;;;;5031592;28;20194;-54
2024/01/26 07:13:16;;;;;;;3.20;2.90;;;;;;;;;;5031488;28;20178;-54
2024/01/26 07:15:42;;;;;;;3.47;3.17;;;;;;;;;;5030834;28;20281;-54
2024/01/26 07:18:08;;;;;;;3.30;2.57;;;;;;;;;;5031286;28;20177;-55
2024/01/26 07:20:34;;;;;;;3.13;2.70;;;;;;;;;;5026360;28;21058;-54
2024/01/26 07:23:00;;;;;;;2.87;2.60;;;;;;;;;;5031943;28;20193;-54
2024/01/26 07:25:26;;;;;;;3.00;2.40;;;;;;;;;;5030900;28;20231;-55
2024/01/26 07:27:52;;;;;;;3.13;2.50;;;;;;;;;;5030610;28;20204;-53
2024/01/26 07:30:18;;;;;;;3.63;2.77;;;;;;;;;;5025767;28;20670;-53
2024/01/26 07:32:45;;;;;;;2.60;2.40;;;;;;;;;;5022549;28;20178;-53
2024/01/26 07:35:11;;;;;;;3.07;2.77;;;;;;;;;;5011341;28;20190;-53
2024/01/26 07:37:37;;;;;;;3.27;2.17;;;;;;;;;;5021194;28;20219;-53
2024/01/26 07:40:04;;;;;;;3.03;2.73;;;;;;;;;;5023367;28;20179;-53
2024/01/26 07:42:31;;;;;;;4.07;2.93;;;;;;;;;;5031165;28;20205;-53
2024/01/26 07:44:57;;;;;;;2.57;2.37;;;;;;;;;;5025621;28;20190;-53
2024/01/26 07:47:24;;;;;;;2.70;2.50;;;;;;;;;;5025989;28;20221;-53
2024/01/26 07:49:50;;;;;;;2.83;2.60;;;;;;;;;;5020672;28;20591;-54
2024/01/26 07:52:16;;;;;;;2.67;2.43;;;;;;;;;;5023083;28;20691;-54
2024/01/26 07:54:42;;;;;;;6.00;2.50;;;;;;;;;;5025478;28;20186;-53
2024/01/26 07:57:08;;;;;;;3.10;2.63;;;;;;;;;;5028845;28;20182;-54
2024/01/26 07:59:34;;;;;;;2.60;2.17;;;;;;;;;;5028722;28;20277;-54
2024/01/26 08:02:00;;;;;;;3.80;3.07;;;;;;;;;;5027820;28;20760;-53
2024/01/26 08:04:26;;;;;;;2.77;2.37;;;;;;;;;;5029520;28;20232;-54
2024/01/26 08:06:52;;;;;;;3.20;2.80;;;;;;;;;;5023216;28;20182;-54
2024/01/26 08:09:19;;;;;;;4.60;2.90;;;;;;;;;;5024124;28;20614;-54
2024/01/26 08:11:45;;;;;;;5.07;3.43;;;;;;;;;;5027261;28;20347;-53
2024/01/26 08:14:11;;;;;;;4.67;3.37;;;;;;;;;;5024117;28;20233;-54
2024/01/26 08:16:37;;;;;;;4.33;3.23;;;;;;;;;;5023693;28;20177;-54
2024/01/26 08:19:03;;;;;;;4.57;3.67;;;;;;;;;;5028133;28;20243;-54
2024/01/26 08:21:29;;;;;;;3.43;3.13;;;;;;;;;;5026862;28;20189;-54
2024/01/26 08:23:55;;;;;;;3.70;3.40;;;;;;;;;;5027578;28;20951;-54
2024/01/26 08:26:22;;;;;;;5.63;3.97;;;;;;;;;;5025657;28;20190;-54
2024/01/26 08:28:48;;;;;;;3.80;3.40;;;;;;;;;;5026919;28;20713;-53
2024/01/26 08:31:14;;;;;;;4.93;3.93;;;;;;;;;;5030007;28;20538;-53
2024/01/26 08:33:40;;;;;;;3.87;3.57;;;;;;;;;;5027918;28;20197;-54
2024/01/26 08:36:06;;;;;;;5.73;3.70;;;;;;;;;;5023163;28;20182;-53
2024/01/26 08:38:32;;;;;;;5.03;3.53;;;;;;;;;;5025708;28;20192;-54
2024/01/26 08:40:58;;;;;;;4.87;3.47;;;;;;;;;;5025884;28;20182;-54
2024/01/26 08:43:24;;;;;;;6.43;3.70;;;;;;;;;;5026548;28;20214;-54
2024/01/26 08:45:50;;;;;;;3.93;3.37;;;;;;;;;;5024821;28;20625;-54
2024/01/26 08:48:16;;;;;;;4.10;3.13;;;;;;;;;;5026589;28;20302;-54
2024/01/26 08:50:43;;;;;;;4.30;3.43;;;;;;;;;;5027373;28;20202;-54
2024/01/26 08:53:10;;;;;;;5.03;3.87;;;;;;;;;;5021453;28;20752;-54
2024/01/26 08:55:36;;;;;;;4.43;3.20;;;;;;;;;;5019438;28;20178;-54
2024/01/26 08:58:02;;;;;;;4.50;3.57;;;;;;;;;;5020072;28;20182;-54
2024/01/26 09:00:28;;;;;;;3.60;3.30;;;;;;;;;;5024820;28;20189;-54
2024/01/26 09:02:54;;;;;;;5.20;3.80;;;;;;;;;;5025608;28;20181;-54
2024/01/26 09:05:20;;;;;;;4.90;3.23;;;;;;;;;;5026153;28;20181;-54
2024/01/26 09:07:46;;;;;;;4.90;3.33;;;;;;;;;;5022254;28;20184;-54
2024/01/26 09:10:12;;;;;;;3.53;3.17;;;;;;;;;;5025703;28;20218;-54
2024/01/26 09:12:38;;;;;;;3.27;2.97;;;;;;;;;;5018896;28;20236;-54
2024/01/26 09:15:04;;;;;;;3.40;2.97;;;;;;;;;;5018907;28;20224;-54
2024/01/26 09:17:31;;;;;;;4.47;3.07;;;;;;;;;;5023427;28;20708;-54
2024/01/26 09:19:57;;;;;;;4.10;3.40;;;;;;;;;;5019243;28;20194;-54
2024/01/26 09:22:24;;;;;;;3.10;2.73;;;;;;;;;;5021347;28;20186;-54
2024/01/26 09:24:50;;;;;;;4.13;3.37;;;;;;;;;;5019213;28;20193;-54
2024/01/26 09:27:16;;;;;;;3.60;2.63;;;;;;;;;;5021688;28;20252;-54
2024/01/26 09:29:42;;;;;;;5.33;3.77;;;;;;;;;;5020077;28;20189;-54
2024/01/26 09:32:08;;;;;;;4.53;3.50;;;;;;;;;;5021234;28;20198;-54
2024/01/26 09:34:34;;;;;;;4.03;2.97;;;;;;;;;;5024999;28;20182;-54
2024/01/26 09:37:00;;;;;;;3.23;2.97;;;;;;;;;;5022920;28;20174;-54
2024/01/26 09:39:27;;;;;;;3.47;3.17;;;;;;;;;;5024840;28;20708;-54
2024/01/26 09:41:55;;;;;;;4.20;3.80;;;;;;;;;;5022337;28;20416;-54
2024/01/26 09:44:21;;;;;;;4.20;3.43;;;;;;;;;;5020965;28;20178;-54
2024/01/26 09:46:47;;;;;;;3.27;2.97;;;;;;;;;;5015552;28;20293;-54
2024/01/26 09:49:14;;;;;;;3.47;3.17;;;;;;;;;;5019901;28;22078;-54
2024/01/26 09:51:41;;;;;;;3.63;3.33;;;;;;;;;;5024056;28;20681;-54
2024/01/26 09:54:08;;;;;;;3.50;3.07;;;;;;;;;;5021278;28;20186;-54
2024/01/26 09:56:35;;;;;;;3.17;2.90;;;;;;;;;;5024453;28;20178;-54
2024/01/26 09:59:01;;;;;;;3.23;2.90;;;;;;;;;;5019207;28;20244;-54
2024/01/26 10:01:28;;;;;;;3.60;3.07;;;;;;;;;;5017755;28;20649;-53
2024/01/26 10:03:56;;;;;;;3.40;3.10;;;;;;;;;;5025274;28;20699;-54
2024/01/26 10:06:22;;;;;;;3.27;2.93;;;;;;;;;;5021056;28;20186;-54
2024/01/26 10:08:48;;;;;;;3.40;3.10;;;;;;;;;;5023923;28;20182;-54
2024/01/26 10:11:14;;;;;;;4.17;3.73;;;;;;;;;;5026892;28;20300;-53
2024/01/26 10:13:40;;;;;;;3.20;2.90;;;;;;;;;;5026294;28;20280;-54
2024/01/26 10:16:13;;;;;;;5.27;3.20;;;;;;;;;;5027911;28;20707;-54
2024/01/26 10:18:43;;;;;;;3.33;3.00;;;;;;;;;;5020430;28;20182;-54
2024/01/26 10:21:09;;;;;;;3.77;3.13;;;;;;;;;;5023012;28;20190;-54
2024/01/26 10:23:35;;;;;;;5.27;3.40;;;;;;;;;;5019953;28;20281;-54
2024/01/26 10:26:02;;;;;;;3.67;3.30;;;;;;;;;;5026046;28;20645;-54
2024/01/26 10:28:28;;;;;;;3.67;3.20;;;;;;;;;;5028148;28;20834;-54
2024/01/26 10:30:54;;;;;;;3.77;2.90;;;;;;;;;;5031143;28;20267;-54
2024/01/26 10:33:22;;;;;;;3.40;3.03;;;;;;;;;;5028856;28;20188;-54
2024/01/26 10:35:50;;;;;;;3.93;3.53;;;;;;;;;;5024924;28;20186;-54
2024/01/26 10:38:16;;;;;;;4.80;3.50;;;;;;;;;;5027917;28;20182;-54
2024/01/26 10:40:44;;;;;;;3.57;3.27;;;;;;;;;;5028811;28;20193;-55
2024/01/26 10:43:10;;;;;;;5.37;3.67;;;;;;;;;;5030955;28;20751;-60
2024/01/26 10:45:36;;;;;;;3.33;3.03;;;;;;;;;;5024550;28;20273;-58
2024/01/26 10:48:03;;;;;;;3.63;3.23;;;;;;;;;;5029900;28;20491;-60
2024/01/26 10:50:29;;;;;;;3.40;3.10;;;;;;;;;;5023723;28;20178;-58
2024/01/26 10:52:56;;;;;;;3.10;2.80;;;;;;;;;;5015985;28;20197;-59
2024/01/26 10:55:22;;;;;;;3.77;2.60;;;;;;;;;;5022619;28;20297;-60
2024/01/26 10:57:48;;;;;;;4.17;2.73;;;;;;;;;;5012453;28;20695;-59
2024/01/26 11:00:15;;;;;;;3.00;2.70;;;;;;;;;;5012004;28;20265;-61
2024/01/26 11:02:41;;;;;;;3.03;2.67;;;;;;;;;;5019706;28;20547;-61
2024/01/26 11:05:10;;;;;;;6.87;2.53;;;;;;;;;;5018644;28;20193;-60
2024/01/26 11:07:36;;;;;;;3.60;2.40;;;;;;;;;;5017889;28;20252;-62
2024/01/26 11:10:04;;;;;;;2.70;1.90;;;;;;;;;;5021316;28;20261;-62
2024/01/26 11:12:32;;;;;;;2.27;1.63;;;;;;;;;;5029887;28;20190;-61
2024/01/26 11:15:10;;;;;;;2.63;1.63;;;;;;;;;;5015008;28;20309;-61
2024/01/26 11:17:53;;;;;;;3.60;1.83;;;;;;;;;;5014592;28;20289;-62
2024/01/26 11:20:25;;;;;;;4.77;2.00;;;;;;;;;;5028511;28;20587;-57
2024/01/26 11:22:58;;;;;;;4.23;1.53;;;;;;;;;;5027737;28;20219;-62
2024/01/26 11:25:24;;;;;;;3.13;1.33;;;;;;;;;;5011049;28;20221;-61
2024/01/26 11:28:00;;;;;;;1.27;1.17;;;;;;;;;;5020086;28;20190;-59
2024/01/26 11:30:27;;;;;;;2.43;1.23;;;;;;;;;;5031198;28;20166;-60
2024/01/26 11:32:53;;;;;;;4.57;1.40;;;;;;;;;;5028919;28;20285;-59
2024/01/26 11:35:20;;;;;;;4.40;2.00;;;;;;;;;;5023205;28;20645;-61
2024/01/26 11:37:47;;;;;;;1.80;1.03;;;;;;;;;;5009423;28;20228;-60
2024/01/26 11:40:14;;;;;;;3.42;1.60;;;;;;;;;;5010681;28;20660;-57
2024/01/26 11:42:41;;;;;;;2.67;1.33;;;;;;;;;;5027781;28;20540;-60
2024/01/26 11:45:11;;;;;;;1.00;0.90;;;;;;;;;;5028555;28;20213;-59
2024/01/26 11:47:41;;;;;;;2.03;1.30;;;;;;;;;;5025307;28;20565;-60
2024/01/26 11:50:07;;;;;;;3.10;1.40;;;;;;;;;;5016537;28;20588;-53
2024/01/26 11:52:34;;;;;;;6.60;1.87;;;;;;;;;;5019955;28;20732;-53
2024/01/26 11:55:00;;;;;;;3.23;1.50;;;;;;;;;;5022955;28;20218;-54
2024/01/26 11:57:27;;;;;;;4.43;1.70;;;;;;;;;;5015219;28;20650;-51
2024/01/26 11:59:53;;;;;;;2.10;1.30;;;;;;;;;;5032037;28;20177;-53
2024/01/26 12:02:19;;;;;;;4.53;1.50;;;;;;;;;;5012361;28;20166;-53
2024/01/26 12:04:45;;;;;;;4.17;1.63;;;;;;;;;;5035051;28;20300;-52
2024/01/26 12:07:11;;;;;;;4.20;1.73;;;;;;;;;;5030666;28;20277;-50
2024/01/26 12:09:37;;;;;;;3.47;1.30;;;;;;;;;;5028494;28;20184;-50
2024/01/26 12:12:07;;;;;;;2.30;1.30;;;;;;;;;;5023767;28;20205;-51
2024/01/26 12:14:33;;;;;;;1.67;1.40;;;;;;;;;;5029182;28;20272;-51
2024/01/26 12:17:01;;;;;;;3.27;1.30;;;;;;;;;;5030405;28;20166;-52
2024/01/26 12:19:27;;;;;;;1.60;1.27;;;;;;;;;;5034977;28;20609;-53
2024/01/26 12:21:53;;;;;;;5.33;1.57;;;;;;;;;;5042464;28;20189;-50
2024/01/26 12:24:19;;;;;;;1.70;1.30;;;;;;;;;;5029416;28;20648;-51
2024/01/26 12:26:45;;;;;;;1.90;1.03;;;;;;;;;;5024354;28;20213;-51
2024/01/26 12:29:11;;;;;;;1.70;1.30;;;;;;;;;;5023517;28;20198;-49
2024/01/26 12:31:38;;;;;;;3.50;1.73;;;;;;;;;;5018212;28;20202;-52
2024/01/26 12:34:11;;;;;;;4.00;1.33;;;;;;;;;;5012299;28;20175;-50
2024/01/26 12:36:37;;;;;;;2.37;1.17;;;;;;;;;;5030396;28;20298;-50
2024/01/26 12:39:04;;;;;;;2.23;1.40;;;;;;;;;;5032043;28;20193;-51
2024/01/26 12:41:32;;;;;;;2.30;1.20;;;;;;;;;;5017761;28;20171;-51
2024/01/26 12:43:58;;;;;;;3.50;1.10;;;;;;;;;;5023889;28;20672;-50
2024/01/26 12:46:24;;;;;;;2.63;1.40;;;;;;;;;;5025561;28;20214;-51
2024/01/26 12:48:50;;;;;;;3.70;1.60;;;;;;;;;;5025116;28;20193;-51
2024/01/26 12:51:16;;;;;;;4.30;1.47;;;;;;;;;;5024041;28;20214;-51
2024/01/26 12:53:42;;;;;;;1.80;1.10;;;;;;;;;;5027170;28;20660;-51
2024/01/26 12:56:08;;;;;;;2.37;1.30;;;;;;;;;;5019007;28;20190;-51
2024/01/26 12:58:34;;;;;;;3.50;1.33;;;;;;;;;;5018399;28;20181;-50
2024/01/26 13:01:00;;;;;;;3.73;2.00;;;;;;;;;;5023904;28;20855;-60
2024/01/26 13:03:27;;;;;;;3.63;1.40;;;;;;;;;;5016635;28;20190;-60
2024/01/26 13:05:53;;;;;;;2.73;1.10;;;;;;;;;;5016471;28;20181;-59
2024/01/26 13:08:19;;;;;;;2.53;0.97;;;;;;;;;;5029447;28;20228;-59
2024/01/26 13:10:45;;;;;;;2.40;1.40;;;;;;;;;;5023379;28;20281;-59
2024/01/26 13:13:12;;;;;;;4.60;1.90;;;;;;;;;;5023292;28;20209;-60
2024/01/26 13:15:38;;;;;;;3.83;1.47;;;;;;;;;;5024123;28;20186;-59
2024/01/26 13:18:05;;;;;;;4.43;1.30;;;;;;;;;;5026762;28;20634;-57
2024/01/26 13:20:32;;;;;;;4.03;1.50;;;;;;;;;;5016393;28;20541;-60
2024/01/26 13:22:58;;;;;;;2.87;1.57;;;;;;;;;;5018453;28;20178;-60
2024/01/26 13:25:24;;;;;;;3.47;1.70;;;;;;;;;;5030030;28;20224;-59
2024/01/26 13:27:51;;;;;;;8.40;2.10;;;;;;;;;;5029663;28;20201;-59
2024/01/26 13:30:17;;;;;;;2.20;1.60;;;;;;;;;;5028179;28;20186;-59
2024/01/26 13:32:45;;;;;;;7.37;1.67;;;;;;;;;;5020567;28;20213;-59
2024/01/26 13:35:11;;;;;;;3.07;1.27;;;;;;;;;;5020602;28;20269;-58
2024/01/26 13:37:37;;;;;;;5.23;1.93;;;;;;;;;;5018781;28;20257;-59
2024/01/26 13:40:05;;;;;;;9.00;1.80;;;;;;;;;;5009556;28;20185;-60
2024/01/26 13:42:31;;;;;;;3.07;1.20;;;;;;;;;;5027137;28;20244;-59
2024/01/26 13:44:57;;;;;;;3.73;1.70;;;;;;;;;;5011103;28;20656;-59
2024/01/26 13:47:23;;;;;;;4.90;1.40;;;;;;;;;;5022835;28;20221;-60
2024/01/26 13:49:54;;;;;;;5.77;1.70;;;;;;;;;;5020747;28;20497;-58
2024/01/26 13:52:20;;;;;;;2.70;1.63;;;;;;;;;;5028218;28;20224;-59
2024/01/26 13:54:46;;;;;;;5.20;2.27;;;;;;;;;;5024601;28;20202;-58
2024/01/26 13:57:15;;;;;;;8.40;1.63;;;;;;;;;;5021830;28;20179;-59
2024/01/26 13:59:41;;;;;;;4.00;1.83;;;;;;;;;;5023844;28;20181;-59
2024/01/26 14:02:07;;;;;;;5.93;1.60;;;;;;;;;;5018038;28;20700;-58
2024/01/26 14:04:33;;;;;;;5.10;1.90;;;;;;;;;;5021227;28;20202;-60
2024/01/26 14:07:00;;;;;;;4.57;1.93;;;;;;;;;;5010817;28;20179;-56
2024/01/26 14:09:26;;;;;;;2.50;1.33;;;;;;;;;;5018758;28;20182;-58
2024/01/26 14:11:53;;;;;;;5.27;1.90;;;;;;;;;;5013817;28;20209;-53
2024/01/26 14:14:22;;;;;;;6.40;2.00;;;;;;;;;;5016445;28;20629;-53
2024/01/26 14:16:48;;;;;;;2.87;1.47;;;;;;;;;;5014994;28;20684;-53
2024/01/26 14:19:14;;;;;;;3.37;1.70;;;;;;;;;;5023144;28;20546;-53
2024/01/26 14:21:41;;;;;;;3.23;1.50;;;;;;;;;;5017755;28;20182;-53
2024/01/26 14:24:08;;;;;;;2.77;1.60;;;;;;;;;;5019591;28;20186;-53
2024/01/26 14:26:34;;;;;;;6.27;1.80;;;;;;;;;;5028620;28;20642;-53
2024/01/26 14:29:00;;;;;;;1.97;1.67;;;;;;;;;;5008676;28;20578;-53
2024/01/26 14:31:27;;;;;;;6.77;2.37;;;;;;;;;;5012354;28;20236;-55
2024/01/26 14:33:53;;;;;;;4.43;1.60;;;;;;;;;;5010085;28;20701;-53
2024/01/26 14:36:22;;;;;;;4.90;2.17;;;;;;;;;;5015218;28;20209;-53